sensor_id;sensor_type;location;lat;lon;timestamp;temperature;humidity
4556;DHT22;2290;48.674;9.018;2023-02-08T00:00:38;-1.20;99.90
4556;DHT22;2290;48.674;9.018;2023-02-08T00:07:45;-1.10;99.90
4556;DHT22;2290;48.674;9.018;2023-02-08T00:11:28;-1.10;99.90
4556;DHT22;2290;48.674;9.018;2023-02-08T00:14:33;-1.10;99.90
4556;DHT22;2290;48.674;9.018;2023-02-08T00:17:42;-1.10;99.90
4556;DHT22;2290;48.674;9.018;2023-02-08T00:31:59;-1.30;99.90
4556;DHT22;2290;48.674;9.018;2023-02-08T00:35:08;-1.20;99.90
4556;DHT22;2290;48.674;9.018;2023-02-08T00:41:12;-1.30;99.90
4556;DHT22;2290;48.674;9.018;2023-02-08T00:47:58;-1.30;99.90
4556;DHT22;2290;48.674;9.018;2023-02-08T00:51:11;-1.30;99.90
4556;DHT22;2290;48.674;9.018;2023-02-08T00:54:58;-1.30;99.90
4556;DHT22;2290;48.674;9.018;2023-02-08T00:57:52;-1.30;99.90
4556;DHT22;2290;48.674;9.018;2023-02-08T01:00:27;-1.40;99.90
4556;DHT22;2290;48.674;9.018;2023-02-08T01:02:57;-1.30;99.90
4556;DHT22;2290;48.674;9.018;2023-02-08T01:08:50;-1.40;99.90
4556;DHT22;2290;48.674;9.018;2023-02-08T01:12:00;-1.40;99.90
4556;DHT22;2290;48.674;9.018;2023-02-08T01:15:12;-1.50;99.90
4556;DHT22;2290;48.674;9.018;2023-02-08T01:18:44;-1.50;99.90
4556;DHT22;2290;48.674;9.018;2023-02-08T01:21:56;-1.60;99.90
4556;DHT22;2290;48.674;9.018;2023-02-08T01:25:17;-1.60;99.90
4556;DHT22;2290;48.674;9.018;2023-02-08T01:28:14;-1.70;99.90
4556;DHT22;2290;48.674;9.018;2023-02-08T01:30:54;-1.80;99.90
4556;DHT22;2290;48.674;9.018;2023-02-08T01:33:38;-1.80;99.90
4556;DHT22;2290;48.674;9.018;2023-02-08T01:36:45;-1.90;99.90
4556;DHT22;2290;48.674;9.018;2023-02-08T01:40:24;-1.90;99.90
4556;DHT22;2290;48.674;9.018;2023-02-08T01:46:43;-2.00;99.90
4556;DHT22;2290;48.674;9.018;2023-02-08T01:50:14;-2.00;99.90
4556;DHT22;2290;48.674;9.018;2023-02-08T01:53:01;-1.90;99.90
4556;DHT22;2290;48.674;9.018;2023-02-08T01:56:12;-2.10;99.90
4556;DHT22;2290;48.674;9.018;2023-02-08T01:58:56;-2.20;99.90
4556;DHT22;2290;48.674;9.018;2023-02-08T02:01:28;-2.20;99.90
4556;DHT22;2290;48.674;9.018;2023-02-08T02:03:57;-2.20;99.90
4556;DHT22;2290;48.674;9.018;2023-02-08T02:06:53;-2.10;99.90
4556;DHT22;2290;48.674;9.018;2023-02-08T02:09:59;-2.20;99.90
4556;DHT22;2290;48.674;9.018;2023-02-08T02:12:49;-2.20;99.90
4556;DHT22;2290;48.674;9.018;2023-02-08T02:15:30;-2.20;99.90
4556;DHT22;2290;48.674;9.018;2023-02-08T02:18:09;-2.20;99.90
4556;DHT22;2290;48.674;9.018;2023-02-08T02:21:41;-2.20;99.90
4556;DHT22;2290;48.674;9.018;2023-02-08T02:38:04;-2.40;99.90
4556;DHT22;2290;48.674;9.018;2023-02-08T02:47:11;-2.40;99.90
4556;DHT22;2290;48.674;9.018;2023-02-08T02:50:36;-2.40;99.90
4556;DHT22;2290;48.674;9.018;2023-02-08T02:54:19;-2.60;99.90
4556;DHT22;2290;48.674;9.018;2023-02-08T02:56:57;-2.70;99.90
4556;DHT22;2290;48.674;9.018;2023-02-08T02:59:27;-2.70;99.90
4556;DHT22;2290;48.674;9.018;2023-02-08T03:01:55;-2.80;99.90
4556;DHT22;2290;48.674;9.018;2023-02-08T03:07:10;-2.80;99.90
4556;DHT22;2290;48.674;9.018;2023-02-08T03:12:39;-2.70;99.90
4556;DHT22;2290;48.674;9.018;2023-02-08T03:15:39;-2.70;99.90
4556;DHT22;2290;48.674;9.018;2023-02-08T03:19:05;-2.70;99.90
4556;DHT22;2290;48.674;9.018;2023-02-08T03:22:26;-2.80;99.90
4556;DHT22;2290;48.674;9.018;2023-02-08T03:28:57;-2.80;99.90
4556;DHT22;2290;48.674;9.018;2023-02-08T03:32:40;-2.80;99.90
4556;DHT22;2290;48.674;9.018;2023-02-08T03:36:07;-2.90;99.90
4556;DHT22;2290;48.674;9.018;2023-02-08T03:39:25;-2.90;99.90
4556;DHT22;2290;48.674;9.018;2023-02-08T03:43:02;-2.90;99.90
4556;DHT22;2290;48.674;9.018;2023-02-08T03:48:26;-2.70;99.90
4556;DHT22;2290;48.674;9.018;2023-02-08T03:50:55;-2.50;99.90
4556;DHT22;2290;48.674;9.018;2023-02-08T03:53:23;-2.60;99.90
4556;DHT22;2290;48.674;9.018;2023-02-08T03:56:01;-2.60;99.90
4556;DHT22;2290;48.674;9.018;2023-02-08T03:58:57;-2.70;99.90
4556;DHT22;2290;48.674;9.018;2023-02-08T04:01:47;-2.70;99.90
4556;DHT22;2290;48.674;9.018;2023-02-08T04:04:15;-2.70;99.90
4556;DHT22;2290;48.674;9.018;2023-02-08T04:07:36;-2.60;99.90
4556;DHT22;2290;48.674;9.018;2023-02-08T04:13:57;-2.80;99.90
4556;DHT22;2290;48.674;9.018;2023-02-08T04:16:30;-2.70;99.90
4556;DHT22;2290;48.674;9.018;2023-02-08T04:19:25;-2.70;99.90
4556;DHT22;2290;48.674;9.018;2023-02-08T04:22:05;-2.60;99.90
4556;DHT22;2290;48.674;9.018;2023-02-08T04:24:59;-2.70;99.90
4556;DHT22;2290;48.674;9.018;2023-02-08T04:27:59;-2.60;99.90
4556;DHT22;2290;48.674;9.018;2023-02-08T04:30:49;-2.60;99.90
4556;DHT22;2290;48.674;9.018;2023-02-08T04:33:34;-2.50;99.90
4556;DHT22;2290;48.674;9.018;2023-02-08T04:36:02;-2.50;99.90
4556;DHT22;2290;48.674;9.018;2023-02-08T04:38:27;-2.50;99.90
4556;DHT22;2290;48.674;9.018;2023-02-08T04:40:53;-2.50;99.90
4556;DHT22;2290;48.674;9.018;2023-02-08T04:43:21;-2.60;99.90
4556;DHT22;2290;48.674;9.018;2023-02-08T04:46:02;-2.60;99.90
4556;DHT22;2290;48.674;9.018;2023-02-08T04:48:52;-2.60;99.90
4556;DHT22;2290;48.674;9.018;2023-02-08T04:52:07;-2.60;99.90
4556;DHT22;2290;48.674;9.018;2023-02-08T04:55:34;-2.50;99.90
4556;DHT22;2290;48.674;9.018;2023-02-08T04:58:37;-2.50;99.90
4556;DHT22;2290;48.674;9.018;2023-02-08T05:02:00;-2.60;99.90
4556;DHT22;2290;48.674;9.018;2023-02-08T05:04:29;-2.60;99.90
4556;DHT22;2290;48.674;9.018;2023-02-08T05:06:55;-2.60;99.90
4556;DHT22;2290;48.674;9.018;2023-02-08T05:09:20;-2.60;99.90
4556;DHT22;2290;48.674;9.018;2023-02-08T05:11:46;-2.60;99.90
4556;DHT22;2290;48.674;9.018;2023-02-08T05:14:13;-2.70;99.90
4556;DHT22;2290;48.674;9.018;2023-02-08T05:16:38;-2.70;99.90
4556;DHT22;2290;48.674;9.018;2023-02-08T05:19:04;-2.70;99.90
4556;DHT22;2290;48.674;9.018;2023-02-08T05:21:30;-2.70;99.90
4556;DHT22;2290;48.674;9.018;2023-02-08T05:23:55;-2.70;99.90
4556;DHT22;2290;48.674;9.018;2023-02-08T05:26:21;-2.70;99.90
4556;DHT22;2290;48.674;9.018;2023-02-08T05:28:46;-2.60;99.90
4556;DHT22;2290;48.674;9.018;2023-02-08T05:31:23;-2.60;99.90
4556;DHT22;2290;48.674;9.018;2023-02-08T05:33:49;-2.50;99.90
4556;DHT22;2290;48.674;9.018;2023-02-08T05:36:15;-2.50;99.90
4556;DHT22;2290;48.674;9.018;2023-02-08T05:38:41;-2.40;99.90
4556;DHT22;2290;48.674;9.018;2023-02-08T05:41:08;-2.40;99.90
4556;DHT22;2290;48.674;9.018;2023-02-08T05:43:34;-2.40;99.90
4556;DHT22;2290;48.674;9.018;2023-02-08T05:46:00;-2.40;99.90
4556;DHT22;2290;48.674;9.018;2023-02-08T05:48:25;-2.40;99.90
4556;DHT22;2290;48.674;9.018;2023-02-08T05:50:51;-2.40;99.90
4556;DHT22;2290;48.674;9.018;2023-02-08T05:53:16;-2.50;99.90
4556;DHT22;2290;48.674;9.018;2023-02-08T05:55:46;-2.50;99.90
4556;DHT22;2290;48.674;9.018;2023-02-08T05:58:13;-2.50;99.90
4556;DHT22;2290;48.674;9.018;2023-02-08T06:00:39;-2.50;99.90
4556;DHT22;2290;48.674;9.018;2023-02-08T06:03:05;-2.60;99.90
4556;DHT22;2290;48.674;9.018;2023-02-08T06:05:30;-2.60;99.90
4556;DHT22;2290;48.674;9.018;2023-02-08T06:07:56;-2.70;99.90
4556;DHT22;2290;48.674;9.018;2023-02-08T06:10:22;-2.60;99.90
4556;DHT22;2290;48.674;9.018;2023-02-08T06:12:47;-2.60;99.90
4556;DHT22;2290;48.674;9.018;2023-02-08T06:15:13;-2.60;99.90
4556;DHT22;2290;48.674;9.018;2023-02-08T06:17:38;-2.70;99.90
4556;DHT22;2290;48.674;9.018;2023-02-08T06:20:04;-2.70;99.90
4556;DHT22;2290;48.674;9.018;2023-02-08T06:22:30;-2.80;99.90
4556;DHT22;2290;48.674;9.018;2023-02-08T06:24:56;-2.90;99.90
4556;DHT22;2290;48.674;9.018;2023-02-08T06:27:21;-2.80;99.90
4556;DHT22;2290;48.674;9.018;2023-02-08T06:29:47;-2.80;99.90
4556;DHT22;2290;48.674;9.018;2023-02-08T06:32:12;-2.80;99.90
4556;DHT22;2290;48.674;9.018;2023-02-08T06:34:39;-2.80;99.90
4556;DHT22;2290;48.674;9.018;2023-02-08T06:37:05;-2.80;99.90
4556;DHT22;2290;48.674;9.018;2023-02-08T06:39:30;-2.80;99.90
4556;DHT22;2290;48.674;9.018;2023-02-08T06:41:56;-2.90;99.90
4556;DHT22;2290;48.674;9.018;2023-02-08T06:44:22;-2.90;99.90
4556;DHT22;2290;48.674;9.018;2023-02-08T06:46:47;-3.00;99.90
4556;DHT22;2290;48.674;9.018;2023-02-08T06:49:13;-3.00;99.90
4556;DHT22;2290;48.674;9.018;2023-02-08T06:51:39;-3.00;99.90
4556;DHT22;2290;48.674;9.018;2023-02-08T06:54:05;-3.10;99.90
4556;DHT22;2290;48.674;9.018;2023-02-08T06:56:31;-3.00;99.90
4556;DHT22;2290;48.674;9.018;2023-02-08T06:58:56;-3.00;99.90
4556;DHT22;2290;48.674;9.018;2023-02-08T07:01:23;-3.10;99.90
4556;DHT22;2290;48.674;9.018;2023-02-08T07:03:49;-3.20;99.90
4556;DHT22;2290;48.674;9.018;2023-02-08T07:06:16;-3.10;99.90
4556;DHT22;2290;48.674;9.018;2023-02-08T07:08:44;-3.00;99.90
4556;DHT22;2290;48.674;9.018;2023-02-08T07:11:13;-3.00;99.90
4556;DHT22;2290;48.674;9.018;2023-02-08T07:13:39;-3.00;99.90
4556;DHT22;2290;48.674;9.018;2023-02-08T07:16:06;-3.00;99.90
4556;DHT22;2290;48.674;9.018;2023-02-08T07:18:32;-2.90;99.90
4556;DHT22;2290;48.674;9.018;2023-02-08T07:20:58;-2.90;99.90
4556;DHT22;2290;48.674;9.018;2023-02-08T07:23:24;-2.80;99.90
4556;DHT22;2290;48.674;9.018;2023-02-08T07:26:01;-2.80;99.90
4556;DHT22;2290;48.674;9.018;2023-02-08T07:28:29;-2.70;99.90
4556;DHT22;2290;48.674;9.018;2023-02-08T07:30:55;-2.60;99.90
4556;DHT22;2290;48.674;9.018;2023-02-08T07:33:22;-2.60;99.90
4556;DHT22;2290;48.674;9.018;2023-02-08T07:35:48;-2.60;99.90
4556;DHT22;2290;48.674;9.018;2023-02-08T07:38:14;-2.60;99.90
4556;DHT22;2290;48.674;9.018;2023-02-08T07:40:41;-2.60;99.90
4556;DHT22;2290;48.674;9.018;2023-02-08T07:43:07;-2.60;99.90
4556;DHT22;2290;48.674;9.018;2023-02-08T07:45:33;-2.50;99.90
4556;DHT22;2290;48.674;9.018;2023-02-08T07:48:00;-2.40;99.90
4556;DHT22;2290;48.674;9.018;2023-02-08T07:50:25;-2.40;99.90
4556;DHT22;2290;48.674;9.018;2023-02-08T07:52:51;-2.30;99.90
4556;DHT22;2290;48.674;9.018;2023-02-08T07:55:17;-2.20;99.90
4556;DHT22;2290;48.674;9.018;2023-02-08T07:57:44;-2.20;99.90
4556;DHT22;2290;48.674;9.018;2023-02-08T08:00:10;-2.00;99.90
4556;DHT22;2290;48.674;9.018;2023-02-08T08:02:36;-2.00;99.90
4556;DHT22;2290;48.674;9.018;2023-02-08T08:05:02;-1.90;99.90
4556;DHT22;2290;48.674;9.018;2023-02-08T08:07:28;-1.80;99.90
4556;DHT22;2290;48.674;9.018;2023-02-08T08:09:54;-1.60;99.90
4556;DHT22;2290;48.674;9.018;2023-02-08T08:12:19;-1.50;99.90
4556;DHT22;2290;48.674;9.018;2023-02-08T08:14:45;-1.30;99.90
4556;DHT22;2290;48.674;9.018;2023-02-08T08:17:11;-1.20;99.90
4556;DHT22;2290;48.674;9.018;2023-02-08T08:19:37;-1.10;99.90
4556;DHT22;2290;48.674;9.018;2023-02-08T08:22:02;-1.00;99.90
4556;DHT22;2290;48.674;9.018;2023-02-08T08:24:28;-0.80;99.90
4556;DHT22;2290;48.674;9.018;2023-02-08T08:26:56;-0.70;99.00
4556;DHT22;2290;48.674;9.018;2023-02-08T08:29:22;-0.70;98.80
4556;DHT22;2290;48.674;9.018;2023-02-08T08:31:48;-0.60;98.70
4556;DHT22;2290;48.674;9.018;2023-02-08T08:34:13;-0.40;99.20
4556;DHT22;2290;48.674;9.018;2023-02-08T08:36:39;-0.20;98.20
4556;DHT22;2290;48.674;9.018;2023-02-08T08:39:05;-0.20;97.40
4556;DHT22;2290;48.674;9.018;2023-02-08T08:41:30;-0.10;97.00
4556;DHT22;2290;48.674;9.018;2023-02-08T08:43:56;-0.10;96.20
4556;DHT22;2290;48.674;9.018;2023-02-08T08:46:21;0.20;99.90
4556;DHT22;2290;48.674;9.018;2023-02-08T08:48:47;0.60;99.90
4556;DHT22;2290;48.674;9.018;2023-02-08T08:51:13;1.00;99.90
4556;DHT22;2290;48.674;9.018;2023-02-08T08:53:39;1.10;96.50
4556;DHT22;2290;48.674;9.018;2023-02-08T08:56:05;1.20;95.50
4556;DHT22;2290;48.674;9.018;2023-02-08T08:58:30;1.20;94.50
4556;DHT22;2290;48.674;9.018;2023-02-08T09:00:57;1.10;93.80
4556;DHT22;2290;48.674;9.018;2023-02-08T09:03:27;1.10;93.70
4556;DHT22;2290;48.674;9.018;2023-02-08T09:05:54;1.10;93.90
4556;DHT22;2290;48.674;9.018;2023-02-08T09:08:21;1.10;94.80
4556;DHT22;2290;48.674;9.018;2023-02-08T09:11:14;1.10;93.70
4556;DHT22;2290;48.674;9.018;2023-02-08T09:13:41;1.20;93.60
4556;DHT22;2290;48.674;9.018;2023-02-08T09:16:13;1.20;93.50
4556;DHT22;2290;48.674;9.018;2023-02-08T09:18:39;1.20;93.20
4556;DHT22;2290;48.674;9.018;2023-02-08T09:21:07;1.20;93.20
4556;DHT22;2290;48.674;9.018;2023-02-08T09:23:32;1.30;92.90
4556;DHT22;2290;48.674;9.018;2023-02-08T09:26:03;1.40;93.00
4556;DHT22;2290;48.674;9.018;2023-02-08T09:28:43;1.60;93.00
4556;DHT22;2290;48.674;9.018;2023-02-08T09:31:26;1.90;94.10
4556;DHT22;2290;48.674;9.018;2023-02-08T09:34:15;1.90;93.10
4556;DHT22;2290;48.674;9.018;2023-02-08T09:36:40;2.10;92.90
4556;DHT22;2290;48.674;9.018;2023-02-08T09:39:13;2.10;93.00
4556;DHT22;2290;48.674;9.018;2023-02-08T09:45:25;2.20;92.20
4556;DHT22;2290;48.674;9.018;2023-02-08T09:48:42;2.10;92.20
4556;DHT22;2290;48.674;9.018;2023-02-08T09:51:35;2.20;92.50
4556;DHT22;2290;48.674;9.018;2023-02-08T09:56:44;2.30;93.20
4556;DHT22;2290;48.674;9.018;2023-02-08T09:59:20;2.30;92.10
4556;DHT22;2290;48.674;9.018;2023-02-08T10:01:48;2.20;92.90
4556;DHT22;2290;48.674;9.018;2023-02-08T10:04:40;2.30;92.60
4556;DHT22;2290;48.674;9.018;2023-02-08T10:07:10;2.40;92.50
4556;DHT22;2290;48.674;9.018;2023-02-08T10:09:36;2.60;92.30
4556;DHT22;2290;48.674;9.018;2023-02-08T10:14:52;2.90;93.10
4556;DHT22;2290;48.674;9.018;2023-02-08T10:20:26;3.20;93.90
4556;DHT22;2290;48.674;9.018;2023-02-08T10:37:16;4.10;92.20
4556;DHT22;2290;48.674;9.018;2023-02-08T10:39:42;4.10;91.80
4556;DHT22;2290;48.674;9.018;2023-02-08T10:42:14;4.10;92.10
4556;DHT22;2290;48.674;9.018;2023-02-08T10:45:04;4.20;91.90
4556;DHT22;2290;48.674;9.018;2023-02-08T10:50:32;4.20;91.40
4556;DHT22;2290;48.674;9.018;2023-02-08T10:52:58;4.30;91.50
4556;DHT22;2290;48.674;9.018;2023-02-08T10:55:25;4.40;91.20
4556;DHT22;2290;48.674;9.018;2023-02-08T10:57:58;4.40;91.30
4556;DHT22;2290;48.674;9.018;2023-02-08T11:00:27;4.40;91.60
4556;DHT22;2290;48.674;9.018;2023-02-08T11:02:57;4.50;91.80
4556;DHT22;2290;48.674;9.018;2023-02-08T11:10:33;4.80;91.60
4556;DHT22;2290;48.674;9.018;2023-02-08T11:18:20;4.90;91.30
4556;DHT22;2290;48.674;9.018;2023-02-08T11:20:49;5.00;91.50
4556;DHT22;2290;48.674;9.018;2023-02-08T11:23:30;5.10;91.00
4556;DHT22;2290;48.674;9.018;2023-02-08T11:28:43;5.00;90.80
4556;DHT22;2290;48.674;9.018;2023-02-08T11:31:27;5.00;91.00
4556;DHT22;2290;48.674;9.018;2023-02-08T11:34:01;5.00;91.10
4556;DHT22;2290;48.674;9.018;2023-02-08T11:36:29;5.10;91.10
4556;DHT22;2290;48.674;9.018;2023-02-08T11:38:56;5.10;90.60
4556;DHT22;2290;48.674;9.018;2023-02-08T11:41:22;5.30;90.70
4556;DHT22;2290;48.674;9.018;2023-02-08T11:44:11;5.50;90.60
4556;DHT22;2290;48.674;9.018;2023-02-08T11:46:39;5.50;90.70
4556;DHT22;2290;48.674;9.018;2023-02-08T11:49:20;5.60;89.50
4556;DHT22;2290;48.674;9.018;2023-02-08T11:51:47;5.50;90.80
4556;DHT22;2290;48.674;9.018;2023-02-08T11:54:37;5.60;90.40
4556;DHT22;2290;48.674;9.018;2023-02-08T11:57:25;5.60;90.40
4556;DHT22;2290;48.674;9.018;2023-02-08T12:00:17;5.60;90.60
4556;DHT22;2290;48.674;9.018;2023-02-08T12:02:43;5.70;90.30
4556;DHT22;2290;48.674;9.018;2023-02-08T12:05:18;5.70;90.70
4556;DHT22;2290;48.674;9.018;2023-02-08T12:08:03;5.80;90.20
4556;DHT22;2290;48.674;9.018;2023-02-08T12:11:41;5.80;90.00
4556;DHT22;2290;48.674;9.018;2023-02-08T12:20:23;6.30;90.40
4556;DHT22;2290;48.674;9.018;2023-02-08T12:23:31;6.30;90.40
4556;DHT22;2290;48.674;9.018;2023-02-08T12:26:31;6.30;90.50
4556;DHT22;2290;48.674;9.018;2023-02-08T12:29:47;6.40;90.50
4556;DHT22;2290;48.674;9.018;2023-02-08T12:39:53;6.70;90.30
4556;DHT22;2290;48.674;9.018;2023-02-08T12:56:48;7.00;87.50
4556;DHT22;2290;48.674;9.018;2023-02-08T13:00:20;7.20;89.00
4556;DHT22;2290;48.674;9.018;2023-02-08T13:10:48;7.40;88.10
4556;DHT22;2290;48.674;9.018;2023-02-08T13:24:26;7.40;83.00
4556;DHT22;2290;48.674;9.018;2023-02-08T13:27:26;7.20;84.60
4556;DHT22;2290;48.674;9.018;2023-02-08T13:29:57;7.30;84.20
4556;DHT22;2290;48.674;9.018;2023-02-08T13:32:47;7.40;85.70
4556;DHT22;2290;48.674;9.018;2023-02-08T13:39:36;7.60;83.20
4556;DHT22;2290;48.674;9.018;2023-02-08T13:42:40;7.70;86.90
4556;DHT22;2290;48.674;9.018;2023-02-08T14:02:18;7.30;79.20
4556;DHT22;2290;48.674;9.018;2023-02-08T14:25:45;13.10;72.60
4556;DHT22;2290;48.674;9.018;2023-02-08T14:28:38;14.90;70.10
4556;DHT22;2290;48.674;9.018;2023-02-08T14:31:08;16.40;66.70
4556;DHT22;2290;48.674;9.018;2023-02-08T14:33:37;17.20;62.10
4556;DHT22;2290;48.674;9.018;2023-02-08T14:36:18;17.70;61.20
4556;DHT22;2290;48.674;9.018;2023-02-08T14:38:51;18.30;58.40
4556;DHT22;2290;48.674;9.018;2023-02-08T14:41:49;18.50;56.70
4556;DHT22;2290;48.674;9.018;2023-02-08T14:50:22;19.70;52.70
4556;DHT22;2290;48.674;9.018;2023-02-08T14:53:02;19.60;51.00
4556;DHT22;2290;48.674;9.018;2023-02-08T14:55:47;20.10;50.70
4556;DHT22;2290;48.674;9.018;2023-02-08T14:58:25;20.20;50.60
4556;DHT22;2290;48.674;9.018;2023-02-08T15:00:54;20.10;50.10
4556;DHT22;2290;48.674;9.018;2023-02-08T15:03:22;20.50;50.00
4556;DHT22;2290;48.674;9.018;2023-02-08T15:08:52;20.20;48.50
4556;DHT22;2290;48.674;9.018;2023-02-08T15:11:25;19.80;49.30
4556;DHT22;2290;48.674;9.018;2023-02-08T15:13:53;19.40;49.50
4556;DHT22;2290;48.674;9.018;2023-02-08T15:16:21;19.40;49.20
4556;DHT22;2290;48.674;9.018;2023-02-08T15:18:51;18.70;49.60
4556;DHT22;2290;48.674;9.018;2023-02-08T15:21:19;18.80;50.00
4556;DHT22;2290;48.674;9.018;2023-02-08T15:23:58;19.20;49.60
4556;DHT22;2290;48.674;9.018;2023-02-08T15:26:33;19.10;49.70
4556;DHT22;2290;48.674;9.018;2023-02-08T15:29:00;18.90;48.40
4556;DHT22;2290;48.674;9.018;2023-02-08T15:31:30;18.40;48.80
4556;DHT22;2290;48.674;9.018;2023-02-08T15:33:58;18.20;49.50
4556;DHT22;2290;48.674;9.018;2023-02-08T15:36:31;18.20;49.20
4556;DHT22;2290;48.674;9.018;2023-02-08T15:39:36;17.90;48.80
4556;DHT22;2290;48.674;9.018;2023-02-08T15:42:27;17.80;48.90
4556;DHT22;2290;48.674;9.018;2023-02-08T15:44:57;17.30;48.00
4556;DHT22;2290;48.674;9.018;2023-02-08T15:47:27;16.90;48.20
4556;DHT22;2290;48.674;9.018;2023-02-08T15:49:57;16.30;49.50
4556;DHT22;2290;48.674;9.018;2023-02-08T15:52:27;15.40;49.40
4556;DHT22;2290;48.674;9.018;2023-02-08T15:54:54;14.50;50.50
4556;DHT22;2290;48.674;9.018;2023-02-08T16:00:31;12.30;52.60
4556;DHT22;2290;48.674;9.018;2023-02-08T16:05:58;11.60;53.80
4556;DHT22;2290;48.674;9.018;2023-02-08T16:08:28;11.40;53.70
4556;DHT22;2290;48.674;9.018;2023-02-08T16:11:00;11.50;54.30
4556;DHT22;2290;48.674;9.018;2023-02-08T16:13:30;11.50;53.80
4556;DHT22;2290;48.674;9.018;2023-02-08T16:16:21;10.50;54.40
4556;DHT22;2290;48.674;9.018;2023-02-08T16:18:58;9.40;56.70
4556;DHT22;2290;48.674;9.018;2023-02-08T16:21:42;8.30;58.10
4556;DHT22;2290;48.674;9.018;2023-02-08T16:27:03;6.30;62.90
4556;DHT22;2290;48.674;9.018;2023-02-08T16:29:35;5.50;64.80
4556;DHT22;2290;48.674;9.018;2023-02-08T16:34:46;4.80;71.00
4556;DHT22;2290;48.674;9.018;2023-02-08T16:37:29;4.70;70.80
4556;DHT22;2290;48.674;9.018;2023-02-08T16:39:57;4.50;71.10
4556;DHT22;2290;48.674;9.018;2023-02-08T16:47:51;3.90;72.40
4556;DHT22;2290;48.674;9.018;2023-02-08T16:50:55;3.70;72.80
4556;DHT22;2290;48.674;9.018;2023-02-08T16:53:32;3.50;74.00
4556;DHT22;2290;48.674;9.018;2023-02-08T16:55:58;3.20;75.40
4556;DHT22;2290;48.674;9.018;2023-02-08T16:58:24;3.10;76.70
4556;DHT22;2290;48.674;9.018;2023-02-08T17:00:50;2.90;77.60
4556;DHT22;2290;48.674;9.018;2023-02-08T17:03:16;2.80;78.80
4556;DHT22;2290;48.674;9.018;2023-02-08T17:05:42;2.90;79.00
4556;DHT22;2290;48.674;9.018;2023-02-08T17:08:16;2.80;78.90
4556;DHT22;2290;48.674;9.018;2023-02-08T17:10:48;2.70;82.60
4556;DHT22;2290;48.674;9.018;2023-02-08T17:13:17;2.50;82.90
4556;DHT22;2290;48.674;9.018;2023-02-08T17:26:25;2.20;83.40
4556;DHT22;2290;48.674;9.018;2023-02-08T17:28:58;2.10;84.80
4556;DHT22;2290;48.674;9.018;2023-02-08T17:31:24;2.10;85.30
4556;DHT22;2290;48.674;9.018;2023-02-08T17:33:50;2.10;85.60
4556;DHT22;2290;48.674;9.018;2023-02-08T17:36:20;2.00;86.50
4556;DHT22;2290;48.674;9.018;2023-02-08T17:38:57;2.00;90.00
4556;DHT22;2290;48.674;9.018;2023-02-08T17:41:34;2.00;87.60
4556;DHT22;2290;48.674;9.018;2023-02-08T17:44:00;2.00;87.90
4556;DHT22;2290;48.674;9.018;2023-02-08T17:46:27;2.00;88.60
4556;DHT22;2290;48.674;9.018;2023-02-08T17:48:55;1.90;89.30
4556;DHT22;2290;48.674;9.018;2023-02-08T17:51:24;1.90;89.80
4556;DHT22;2290;48.674;9.018;2023-02-08T17:53:50;1.90;90.10
4556;DHT22;2290;48.674;9.018;2023-02-08T17:56:23;1.80;90.00
4556;DHT22;2290;48.674;9.018;2023-02-08T17:58:53;1.80;90.10
4556;DHT22;2290;48.674;9.018;2023-02-08T18:01:45;1.70;90.20
4556;DHT22;2290;48.674;9.018;2023-02-08T18:04:55;1.70;90.30
4556;DHT22;2290;48.674;9.018;2023-02-08T18:07:24;1.60;90.50
4556;DHT22;2290;48.674;9.018;2023-02-08T18:09:49;1.60;90.90
4556;DHT22;2290;48.674;9.018;2023-02-08T18:12:16;1.60;91.30
4556;DHT22;2290;48.674;9.018;2023-02-08T18:14:43;1.60;91.10
4556;DHT22;2290;48.674;9.018;2023-02-08T18:17:09;1.50;91.50
4556;DHT22;2290;48.674;9.018;2023-02-08T18:19:35;1.50;91.10
4556;DHT22;2290;48.674;9.018;2023-02-08T18:22:02;1.50;91.10
4556;DHT22;2290;48.674;9.018;2023-02-08T18:25:00;1.50;91.30
4556;DHT22;2290;48.674;9.018;2023-02-08T18:27:44;1.40;91.40
4556;DHT22;2290;48.674;9.018;2023-02-08T18:30:11;1.40;91.80
4556;DHT22;2290;48.674;9.018;2023-02-08T18:32:39;1.40;91.90
4556;DHT22;2290;48.674;9.018;2023-02-08T18:35:09;1.40;92.10
4556;DHT22;2290;48.674;9.018;2023-02-08T18:37:36;1.40;92.20
4556;DHT22;2290;48.674;9.018;2023-02-08T18:40:03;1.40;92.10
4556;DHT22;2290;48.674;9.018;2023-02-08T18:42:35;1.30;92.30
4556;DHT22;2290;48.674;9.018;2023-02-08T18:45:00;1.20;92.50
4556;DHT22;2290;48.674;9.018;2023-02-08T18:47:27;1.20;92.90
4556;DHT22;2290;48.674;9.018;2023-02-08T18:50:00;1.10;93.20
4556;DHT22;2290;48.674;9.018;2023-02-08T18:52:25;1.00;93.60
4556;DHT22;2290;48.674;9.018;2023-02-08T18:54:52;1.00;93.70
4556;DHT22;2290;48.674;9.018;2023-02-08T18:57:19;1.10;93.80
4556;DHT22;2290;48.674;9.018;2023-02-08T18:59:58;1.10;93.90
4556;DHT22;2290;48.674;9.018;2023-02-08T19:02:24;0.90;94.60
4556;DHT22;2290;48.674;9.018;2023-02-08T19:04:53;0.90;94.50
4556;DHT22;2290;48.674;9.018;2023-02-08T19:07:20;0.90;94.30
4556;DHT22;2290;48.674;9.018;2023-02-08T19:09:46;1.00;94.20
4556;DHT22;2290;48.674;9.018;2023-02-08T19:12:13;0.90;94.40
4556;DHT22;2290;48.674;9.018;2023-02-08T19:14:42;0.90;94.20
4556;DHT22;2290;48.674;9.018;2023-02-08T19:17:10;0.90;94.30
4556;DHT22;2290;48.674;9.018;2023-02-08T19:19:36;0.90;94.40
4556;DHT22;2290;48.674;9.018;2023-02-08T19:22:02;0.80;94.60
4556;DHT22;2290;48.674;9.018;2023-02-08T19:24:28;0.80;94.70
4556;DHT22;2290;48.674;9.018;2023-02-08T19:26:54;0.80;95.10
4556;DHT22;2290;48.674;9.018;2023-02-08T19:29:19;0.70;94.90
4556;DHT22;2290;48.674;9.018;2023-02-08T19:31:47;0.70;95.10
4556;DHT22;2290;48.674;9.018;2023-02-08T19:34:14;0.70;95.10
4556;DHT22;2290;48.674;9.018;2023-02-08T19:36:42;0.70;95.00
4556;DHT22;2290;48.674;9.018;2023-02-08T19:39:14;0.80;95.00
4556;DHT22;2290;48.674;9.018;2023-02-08T19:41:45;0.80;94.90
4556;DHT22;2290;48.674;9.018;2023-02-08T19:44:24;0.80;95.00
4556;DHT22;2290;48.674;9.018;2023-02-08T19:46:52;0.70;95.30
4556;DHT22;2290;48.674;9.018;2023-02-08T19:49:22;0.70;95.60
4556;DHT22;2290;48.674;9.018;2023-02-08T19:51:48;0.60;95.70
4556;DHT22;2290;48.674;9.018;2023-02-08T19:54:20;0.60;95.90
4556;DHT22;2290;48.674;9.018;2023-02-08T19:56:46;0.60;95.80
4556;DHT22;2290;48.674;9.018;2023-02-08T19:59:21;0.60;95.80
4556;DHT22;2290;48.674;9.018;2023-02-08T20:01:49;0.50;96.00
4556;DHT22;2290;48.674;9.018;2023-02-08T20:04:15;0.50;96.30
4556;DHT22;2290;48.674;9.018;2023-02-08T20:06:41;0.40;96.40
4556;DHT22;2290;48.674;9.018;2023-02-08T20:09:10;0.40;96.70
4556;DHT22;2290;48.674;9.018;2023-02-08T20:11:40;0.40;97.40
4556;DHT22;2290;48.674;9.018;2023-02-08T20:14:11;0.40;97.00
4556;DHT22;2290;48.674;9.018;2023-02-08T20:16:42;0.50;97.10
4556;DHT22;2290;48.674;9.018;2023-02-08T20:19:16;0.40;97.20
4556;DHT22;2290;48.674;9.018;2023-02-08T20:21:42;0.40;97.40
4556;DHT22;2290;48.674;9.018;2023-02-08T20:24:09;0.20;97.70
4556;DHT22;2290;48.674;9.018;2023-02-08T20:26:42;0.30;97.80
4556;DHT22;2290;48.674;9.018;2023-02-08T20:29:11;0.30;97.40
4556;DHT22;2290;48.674;9.018;2023-02-08T20:31:48;0.30;97.30
4556;DHT22;2290;48.674;9.018;2023-02-08T20:34:20;0.30;97.10
4556;DHT22;2290;48.674;9.018;2023-02-08T20:37:09;0.20;97.10
4556;DHT22;2290;48.674;9.018;2023-02-08T20:39:39;0.30;97.10
4556;DHT22;2290;48.674;9.018;2023-02-08T20:42:07;0.20;97.30
4556;DHT22;2290;48.674;9.018;2023-02-08T20:44:34;0.10;97.60
4556;DHT22;2290;48.674;9.018;2023-02-08T20:47:00;0.00;97.70
4556;DHT22;2290;48.674;9.018;2023-02-08T20:49:27;0.00;97.80
4556;DHT22;2290;48.674;9.018;2023-02-08T20:51:53;0.00;97.90
4556;DHT22;2290;48.674;9.018;2023-02-08T20:54:19;-0.10;98.10
4556;DHT22;2290;48.674;9.018;2023-02-08T20:56:48;-0.10;98.00
4556;DHT22;2290;48.674;9.018;2023-02-08T20:59:14;-0.10;98.10
4556;DHT22;2290;48.674;9.018;2023-02-08T21:01:41;-0.10;98.00
4556;DHT22;2290;48.674;9.018;2023-02-08T21:04:08;-0.10;98.10